sensor_id;sensor_type;location;lat;lon;timestamp;temperature;humidity
6738;DHT22;3406;49.902;8.596;2022-08-19T00:01:47;22.50;69.10
6738;DHT22;3406;49.902;8.596;2022-08-19T00:04:16;22.50;69.20
6738;DHT22;3406;49.902;8.596;2022-08-19T00:06:44;22.50;69.30
6738;DHT22;3406;49.902;8.596;2022-08-19T00:09:15;22.50;69.30
6738;DHT22;3406;49.902;8.596;2022-08-19T00:11:43;22.50;69.30
6738;DHT22;3406;49.902;8.596;2022-08-19T00:14:13;22.50;69.30
6738;DHT22;3406;49.902;8.596;2022-08-19T00:16:41;22.50;69.30
6738;DHT22;3406;49.902;8.596;2022-08-19T00:19:08;22.50;69.20
6738;DHT22;3406;49.902;8.596;2022-08-19T00:21:35;22.50;69.20
6738;DHT22;3406;49.902;8.596;2022-08-19T00:24:04;22.50;69.20
6738;DHT22;3406;49.902;8.596;2022-08-19T00:26:30;22.50;69.10
6738;DHT22;3406;49.902;8.596;2022-08-19T00:28:57;22.50;69.10
6738;DHT22;3406;49.902;8.596;2022-08-19T00:31:26;22.50;69.10
6738;DHT22;3406;49.902;8.596;2022-08-19T00:33:53;22.50;69.10
6738;DHT22;3406;49.902;8.596;2022-08-19T00:36:20;22.50;69.10
6738;DHT22;3406;49.902;8.596;2022-08-19T00:38:46;22.50;69.10
6738;DHT22;3406;49.902;8.596;2022-08-19T00:41:16;22.50;69.10
6738;DHT22;3406;49.902;8.596;2022-08-19T00:43:57;22.50;69.10
6738;DHT22;3406;49.902;8.596;2022-08-19T00:46:26;22.50;69.20
6738;DHT22;3406;49.902;8.596;2022-08-19T00:48:52;22.50;69.10
6738;DHT22;3406;49.902;8.596;2022-08-19T00:51:20;22.50;69.10
6738;DHT22;3406;49.902;8.596;2022-08-19T00:53:47;22.50;69.00
6738;DHT22;3406;49.902;8.596;2022-08-19T00:56:14;22.50;69.00
6738;DHT22;3406;49.902;8.596;2022-08-19T00:58:42;22.50;69.00
6738;DHT22;3406;49.902;8.596;2022-08-19T01:01:09;22.40;68.90
6738;DHT22;3406;49.902;8.596;2022-08-19T01:03:37;22.40;69.00
6738;DHT22;3406;49.902;8.596;2022-08-19T01:06:05;22.40;69.10
6738;DHT22;3406;49.902;8.596;2022-08-19T01:08:32;22.40;69.10
6738;DHT22;3406;49.902;8.596;2022-08-19T01:11:00;22.40;69.10
6738;DHT22;3406;49.902;8.596;2022-08-19T01:13:30;22.40;69.10
6738;DHT22;3406;49.902;8.596;2022-08-19T01:16:01;22.40;69.00
6738;DHT22;3406;49.902;8.596;2022-08-19T01:18:29;22.40;69.00
6738;DHT22;3406;49.902;8.596;2022-08-19T01:21:01;22.40;69.00
6738;DHT22;3406;49.902;8.596;2022-08-19T01:23:30;22.40;68.90
6738;DHT22;3406;49.902;8.596;2022-08-19T01:26:10;22.40;68.90
6738;DHT22;3406;49.902;8.596;2022-08-19T01:28:38;22.30;68.80
6738;DHT22;3406;49.902;8.596;2022-08-19T01:31:05;22.30;68.80
6738;DHT22;3406;49.902;8.596;2022-08-19T01:33:32;22.30;68.80
6738;DHT22;3406;49.902;8.596;2022-08-19T01:36:08;22.30;68.70
6738;DHT22;3406;49.902;8.596;2022-08-19T01:38:40;22.30;68.70
6738;DHT22;3406;49.902;8.596;2022-08-19T01:41:08;22.30;68.70
6738;DHT22;3406;49.902;8.596;2022-08-19T01:43:36;22.30;68.70
6738;DHT22;3406;49.902;8.596;2022-08-19T01:46:03;22.30;68.70
6738;DHT22;3406;49.902;8.596;2022-08-19T01:48:33;22.20;68.70
6738;DHT22;3406;49.902;8.596;2022-08-19T01:51:00;22.20;68.90
6738;DHT22;3406;49.902;8.596;2022-08-19T01:53:27;22.20;68.90
6738;DHT22;3406;49.902;8.596;2022-08-19T01:55:55;22.20;69.00
6738;DHT22;3406;49.902;8.596;2022-08-19T01:58:25;22.20;68.90
6738;DHT22;3406;49.902;8.596;2022-08-19T02:00:53;22.20;68.90
6738;DHT22;3406;49.902;8.596;2022-08-19T02:03:20;22.20;68.90
6738;DHT22;3406;49.902;8.596;2022-08-19T02:05:46;22.20;68.80
6738;DHT22;3406;49.902;8.596;2022-08-19T02:08:13;22.20;68.80
6738;DHT22;3406;49.902;8.596;2022-08-19T02:10:41;22.20;68.80
6738;DHT22;3406;49.902;8.596;2022-08-19T02:13:10;22.20;68.80
6738;DHT22;3406;49.902;8.596;2022-08-19T02:15:37;22.20;68.80
6738;DHT22;3406;49.902;8.596;2022-08-19T02:18:04;22.20;69.00
6738;DHT22;3406;49.902;8.596;2022-08-19T02:20:31;22.20;69.00
6738;DHT22;3406;49.902;8.596;2022-08-19T02:22:57;22.10;68.90
6738;DHT22;3406;49.902;8.596;2022-08-19T02:25:24;22.10;69.00
6738;DHT22;3406;49.902;8.596;2022-08-19T02:27:50;22.10;69.10
6738;DHT22;3406;49.902;8.596;2022-08-19T02:30:18;22.10;69.20
6738;DHT22;3406;49.902;8.596;2022-08-19T02:32:45;22.00;69.10
6738;DHT22;3406;49.902;8.596;2022-08-19T02:35:13;22.00;69.10
6738;DHT22;3406;49.902;8.596;2022-08-19T02:37:40;22.00;69.20
6738;DHT22;3406;49.902;8.596;2022-08-19T02:40:24;22.00;69.20
6738;DHT22;3406;49.902;8.596;2022-08-19T02:42:51;22.00;69.30
6738;DHT22;3406;49.902;8.596;2022-08-19T02:45:19;21.90;69.30
6738;DHT22;3406;49.902;8.596;2022-08-19T02:47:46;21.90;69.40
6738;DHT22;3406;49.902;8.596;2022-08-19T02:50:13;21.90;69.50
6738;DHT22;3406;49.902;8.596;2022-08-19T02:52:40;21.90;69.50
6738;DHT22;3406;49.902;8.596;2022-08-19T02:55:07;21.90;69.50
6738;DHT22;3406;49.902;8.596;2022-08-19T02:57:34;21.80;69.50
6738;DHT22;3406;49.902;8.596;2022-08-19T03:00:04;21.80;69.50
6738;DHT22;3406;49.902;8.596;2022-08-19T03:02:32;21.80;69.70
6738;DHT22;3406;49.902;8.596;2022-08-19T03:04:59;21.80;69.80
6738;DHT22;3406;49.902;8.596;2022-08-19T03:07:27;21.70;69.70
6738;DHT22;3406;49.902;8.596;2022-08-19T03:09:53;21.70;69.70
6738;DHT22;3406;49.902;8.596;2022-08-19T03:12:20;21.70;69.70
6738;DHT22;3406;49.902;8.596;2022-08-19T03:14:46;21.80;69.80
6738;DHT22;3406;49.902;8.596;2022-08-19T03:17:13;21.70;69.80
6738;DHT22;3406;49.902;8.596;2022-08-19T03:19:41;21.70;69.80
6738;DHT22;3406;49.902;8.596;2022-08-19T03:22:09;21.70;69.90
6738;DHT22;3406;49.902;8.596;2022-08-19T03:24:35;21.70;69.90
6738;DHT22;3406;49.902;8.596;2022-08-19T03:27:03;21.70;70.00
6738;DHT22;3406;49.902;8.596;2022-08-19T03:29:31;21.70;70.00
6738;DHT22;3406;49.902;8.596;2022-08-19T03:31:59;21.70;70.00
6738;DHT22;3406;49.902;8.596;2022-08-19T03:34:28;21.60;70.00
6738;DHT22;3406;49.902;8.596;2022-08-19T03:36:58;21.60;70.10
6738;DHT22;3406;49.902;8.596;2022-08-19T03:39:26;21.60;70.20
6738;DHT22;3406;49.902;8.596;2022-08-19T03:41:54;21.60;70.20
6738;DHT22;3406;49.902;8.596;2022-08-19T03:44:23;21.60;70.30
6738;DHT22;3406;49.902;8.596;2022-08-19T03:46:55;21.60;70.30
6738;DHT22;3406;49.902;8.596;2022-08-19T03:49:24;21.60;70.50
6738;DHT22;3406;49.902;8.596;2022-08-19T03:51:52;21.50;70.70
6738;DHT22;3406;49.902;8.596;2022-08-19T03:54:22;21.50;70.50
6738;DHT22;3406;49.902;8.596;2022-08-19T03:56:51;21.50;70.60
6738;DHT22;3406;49.902;8.596;2022-08-19T03:59:24;21.50;70.60
6738;DHT22;3406;49.902;8.596;2022-08-19T04:01:51;21.50;70.70
6738;DHT22;3406;49.902;8.596;2022-08-19T04:04:18;21.50;70.80
6738;DHT22;3406;49.902;8.596;2022-08-19T04:06:44;21.40;70.70
6738;DHT22;3406;49.902;8.596;2022-08-19T04:09:13;21.50;70.80
6738;DHT22;3406;49.902;8.596;2022-08-19T04:11:45;21.40;70.70
6738;DHT22;3406;49.902;8.596;2022-08-19T04:14:14;21.40;70.80
6738;DHT22;3406;49.902;8.596;2022-08-19T04:16:42;21.40;70.80
6738;DHT22;3406;49.902;8.596;2022-08-19T04:19:10;21.40;70.80
6738;DHT22;3406;49.902;8.596;2022-08-19T04:21:37;21.40;70.90
6738;DHT22;3406;49.902;8.596;2022-08-19T04:24:04;21.40;71.00
6738;DHT22;3406;49.902;8.596;2022-08-19T04:26:33;21.30;71.00
6738;DHT22;3406;49.902;8.596;2022-08-19T04:29:04;21.30;71.10
6738;DHT22;3406;49.902;8.596;2022-08-19T04:31:32;21.30;71.20
6738;DHT22;3406;49.902;8.596;2022-08-19T04:34:03;21.30;71.30
6738;DHT22;3406;49.902;8.596;2022-08-19T04:36:32;21.20;71.30
6738;DHT22;3406;49.902;8.596;2022-08-19T04:39:02;21.20;71.40
6738;DHT22;3406;49.902;8.596;2022-08-19T04:41:29;21.20;71.50
6738;DHT22;3406;49.902;8.596;2022-08-19T04:44:15;21.10;71.50
6738;DHT22;3406;49.902;8.596;2022-08-19T04:46:43;21.10;72.30
6738;DHT22;3406;49.902;8.596;2022-08-19T04:49:10;21.10;71.70
6738;DHT22;3406;49.902;8.596;2022-08-19T04:51:40;21.10;71.70
6738;DHT22;3406;49.902;8.596;2022-08-19T04:54:07;21.20;71.80
6738;DHT22;3406;49.902;8.596;2022-08-19T04:56:34;21.20;71.70
6738;DHT22;3406;49.902;8.596;2022-08-19T04:59:01;21.20;71.60
6738;DHT22;3406;49.902;8.596;2022-08-19T05:01:32;21.20;71.60
6738;DHT22;3406;49.902;8.596;2022-08-19T05:04:00;21.30;72.30
6738;DHT22;3406;49.902;8.596;2022-08-19T05:06:27;21.30;71.60
6738;DHT22;3406;49.902;8.596;2022-08-19T05:08:59;21.30;71.50
6738;DHT22;3406;49.902;8.596;2022-08-19T05:11:27;21.30;71.40
6738;DHT22;3406;49.902;8.596;2022-08-19T05:13:55;21.30;71.40
6738;DHT22;3406;49.902;8.596;2022-08-19T05:16:23;21.30;72.00
6738;DHT22;3406;49.902;8.596;2022-08-19T05:18:51;21.40;71.30
6738;DHT22;3406;49.902;8.596;2022-08-19T05:21:36;21.50;71.30
6738;DHT22;3406;49.902;8.596;2022-08-19T05:24:22;21.50;71.20
6738;DHT22;3406;49.902;8.596;2022-08-19T05:26:52;21.60;71.10
6738;DHT22;3406;49.902;8.596;2022-08-19T05:29:23;21.70;71.10
6738;DHT22;3406;49.902;8.596;2022-08-19T05:31:50;21.70;71.00
6738;DHT22;3406;49.902;8.596;2022-08-19T05:34:20;21.70;70.90
6738;DHT22;3406;49.902;8.596;2022-08-19T05:36:48;21.70;70.90
6738;DHT22;3406;49.902;8.596;2022-08-19T05:39:18;21.80;70.90
6738;DHT22;3406;49.902;8.596;2022-08-19T05:41:46;21.80;70.90
6738;DHT22;3406;49.902;8.596;2022-08-19T05:44:14;21.80;70.70
6738;DHT22;3406;49.902;8.596;2022-08-19T05:46:43;21.90;70.80
6738;DHT22;3406;49.902;8.596;2022-08-19T05:49:13;22.00;70.80
6738;DHT22;3406;49.902;8.596;2022-08-19T05:51:42;22.00;70.50
6738;DHT22;3406;49.902;8.596;2022-08-19T05:54:09;22.10;70.50
6738;DHT22;3406;49.902;8.596;2022-08-19T05:56:36;22.10;70.30
6738;DHT22;3406;49.902;8.596;2022-08-19T05:59:04;22.20;70.30
6738;DHT22;3406;49.902;8.596;2022-08-19T06:01:35;22.30;70.30
6738;DHT22;3406;49.902;8.596;2022-08-19T06:04:03;22.30;70.10
6738;DHT22;3406;49.902;8.596;2022-08-19T06:06:30;22.30;70.00
6738;DHT22;3406;49.902;8.596;2022-08-19T06:09:00;22.40;69.90
6738;DHT22;3406;49.902;8.596;2022-08-19T06:11:32;22.40;69.70
6738;DHT22;3406;49.902;8.596;2022-08-19T06:14:01;22.40;69.70
6738;DHT22;3406;49.902;8.596;2022-08-19T06:16:28;22.50;69.60
6738;DHT22;3406;49.902;8.596;2022-08-19T06:18:59;22.60;69.40
6738;DHT22;3406;49.902;8.596;2022-08-19T06:21:28;22.70;69.30
6738;DHT22;3406;49.902;8.596;2022-08-19T06:23:55;22.80;69.30
6738;DHT22;3406;49.902;8.596;2022-08-19T06:26:23;22.80;69.00
6738;DHT22;3406;49.902;8.596;2022-08-19T06:28:50;22.90;68.80
6738;DHT22;3406;49.902;8.596;2022-08-19T06:31:20;22.90;68.50
6738;DHT22;3406;49.902;8.596;2022-08-19T06:33:48;23.00;68.50
6738;DHT22;3406;49.902;8.596;2022-08-19T06:36:20;23.10;68.20
6738;DHT22;3406;49.902;8.596;2022-08-19T06:38:52;23.20;67.90
6738;DHT22;3406;49.902;8.596;2022-08-19T06:41:19;23.30;67.90
6738;DHT22;3406;49.902;8.596;2022-08-19T06:43:47;23.40;67.70
6738;DHT22;3406;49.902;8.596;2022-08-19T06:46:15;23.50;67.40
6738;DHT22;3406;49.902;8.596;2022-08-19T06:48:42;23.50;67.20
6738;DHT22;3406;49.902;8.596;2022-08-19T06:51:09;23.60;67.10
6738;DHT22;3406;49.902;8.596;2022-08-19T06:53:36;23.70;66.90
6738;DHT22;3406;49.902;8.596;2022-08-19T06:56:04;23.60;66.60
6738;DHT22;3406;49.902;8.596;2022-08-19T06:58:31;23.60;66.40
6738;DHT22;3406;49.902;8.596;2022-08-19T07:01:02;23.50;66.40
6738;DHT22;3406;49.902;8.596;2022-08-19T07:03:31;23.50;66.50
6738;DHT22;3406;49.902;8.596;2022-08-19T07:06:03;23.50;66.60
6738;DHT22;3406;49.902;8.596;2022-08-19T07:08:30;23.60;66.70
6738;DHT22;3406;49.902;8.596;2022-08-19T07:10:57;23.70;66.50
6738;DHT22;3406;49.902;8.596;2022-08-19T07:13:23;23.70;66.20
6738;DHT22;3406;49.902;8.596;2022-08-19T07:15:50;23.80;65.90
6738;DHT22;3406;49.902;8.596;2022-08-19T07:18:19;23.90;66.00
6738;DHT22;3406;49.902;8.596;2022-08-19T07:20:46;24.00;65.70
6738;DHT22;3406;49.902;8.596;2022-08-19T07:23:13;24.10;65.50
6738;DHT22;3406;49.902;8.596;2022-08-19T07:25:40;24.20;65.10
6738;DHT22;3406;49.902;8.596;2022-08-19T07:28:07;24.20;64.70
6738;DHT22;3406;49.902;8.596;2022-08-19T07:30:36;24.30;64.50
6738;DHT22;3406;49.902;8.596;2022-08-19T07:33:03;24.40;64.30
6738;DHT22;3406;49.902;8.596;2022-08-19T07:35:31;24.40;64.00
6738;DHT22;3406;49.902;8.596;2022-08-19T07:37:59;24.40;63.60
6738;DHT22;3406;49.902;8.596;2022-08-19T07:40:28;24.60;63.80
6738;DHT22;3406;49.902;8.596;2022-08-19T07:42:55;24.60;63.20
6738;DHT22;3406;49.902;8.596;2022-08-19T07:45:22;24.70;63.00
6738;DHT22;3406;49.902;8.596;2022-08-19T07:47:48;24.70;62.50
6738;DHT22;3406;49.902;8.596;2022-08-19T07:50:16;24.80;62.20
6738;DHT22;3406;49.902;8.596;2022-08-19T07:52:45;24.80;62.00
6738;DHT22;3406;49.902;8.596;2022-08-19T07:55:12;24.90;61.90
6738;DHT22;3406;49.902;8.596;2022-08-19T07:57:38;24.90;61.50
6738;DHT22;3406;49.902;8.596;2022-08-19T08:00:06;25.00;61.30
6738;DHT22;3406;49.902;8.596;2022-08-19T08:02:33;25.10;61.10
6738;DHT22;3406;49.902;8.596;2022-08-19T08:05:00;25.20;60.50
6738;DHT22;3406;49.902;8.596;2022-08-19T08:07:45;25.20;60.20
6738;DHT22;3406;49.902;8.596;2022-08-19T08:10:29;25.30;59.90
6738;DHT22;3406;49.902;8.596;2022-08-19T08:12:56;25.30;59.90
6738;DHT22;3406;49.902;8.596;2022-08-19T08:15:23;25.50;59.90
6738;DHT22;3406;49.902;8.596;2022-08-19T08:17:49;25.70;59.60
6738;DHT22;3406;49.902;8.596;2022-08-19T08:20:17;25.80;59.40
6738;DHT22;3406;49.902;8.596;2022-08-19T08:22:47;25.70;59.20
6738;DHT22;3406;49.902;8.596;2022-08-19T08:25:31;25.70;59.30
6738;DHT22;3406;49.902;8.596;2022-08-19T08:27:58;25.60;59.20
6738;DHT22;3406;49.902;8.596;2022-08-19T08:30:26;25.50;59.30
6738;DHT22;3406;49.902;8.596;2022-08-19T08:32:53;25.50;59.30
6738;DHT22;3406;49.902;8.596;2022-08-19T08:35:22;25.50;59.20
6738;DHT22;3406;49.902;8.596;2022-08-19T08:37:52;25.50;58.90
6738;DHT22;3406;49.902;8.596;2022-08-19T08:40:22;25.50;58.80
6738;DHT22;3406;49.902;8.596;2022-08-19T08:42:55;25.40;58.70
6738;DHT22;3406;49.902;8.596;2022-08-19T08:45:27;25.40;58.60
6738;DHT22;3406;49.902;8.596;2022-08-19T08:47:56;25.50;58.70
6738;DHT22;3406;49.902;8.596;2022-08-19T08:50:29;25.50;58.50
6738;DHT22;3406;49.902;8.596;2022-08-19T08:52:59;25.70;58.50
6738;DHT22;3406;49.902;8.596;2022-08-19T08:55:28;25.80;58.20
6738;DHT22;3406;49.902;8.596;2022-08-19T08:58:00;25.90;58.00
6738;DHT22;3406;49.902;8.596;2022-08-19T09:00:30;26.10;57.50
6738;DHT22;3406;49.902;8.596;2022-08-19T09:02:58;26.20;57.20
6738;DHT22;3406;49.902;8.596;2022-08-19T09:05:32;26.30;56.60
6738;DHT22;3406;49.902;8.596;2022-08-19T09:08:08;26.30;56.50
6738;DHT22;3406;49.902;8.596;2022-08-19T09:10:44;26.30;56.60
6738;DHT22;3406;49.902;8.596;2022-08-19T09:13:20;26.20;56.30
6738;DHT22;3406;49.902;8.596;2022-08-19T09:15:54;26.30;56.50
6738;DHT22;3406;49.902;8.596;2022-08-19T09:18:23;26.40;56.20
6738;DHT22;3406;49.902;8.596;2022-08-19T09:20:50;26.40;56.00
6738;DHT22;3406;49.902;8.596;2022-08-19T09:23:18;26.50;55.80
6738;DHT22;3406;49.902;8.596;2022-08-19T09:25:45;26.60;55.50
6738;DHT22;3406;49.902;8.596;2022-08-19T09:28:12;26.60;55.20
6738;DHT22;3406;49.902;8.596;2022-08-19T09:30:41;26.70;55.20
6738;DHT22;3406;49.902;8.596;2022-08-19T09:33:07;26.70;54.90
6738;DHT22;3406;49.902;8.596;2022-08-19T09:35:34;26.70;55.00
6738;DHT22;3406;49.902;8.596;2022-08-19T09:38:02;26.70;55.00
6738;DHT22;3406;49.902;8.596;2022-08-19T09:40:30;26.70;55.10
6738;DHT22;3406;49.902;8.596;2022-08-19T09:42:57;26.60;55.10
6738;DHT22;3406;49.902;8.596;2022-08-19T09:45:28;26.60;55.30
6738;DHT22;3406;49.902;8.596;2022-08-19T09:47:56;26.60;55.30
6738;DHT22;3406;49.902;8.596;2022-08-19T09:50:23;26.60;55.30
6738;DHT22;3406;49.902;8.596;2022-08-19T09:52:50;26.60;55.40
6738;DHT22;3406;49.902;8.596;2022-08-19T09:55:19;26.60;55.30
6738;DHT22;3406;49.902;8.596;2022-08-19T09:57:46;26.70;55.00
6738;DHT22;3406;49.902;8.596;2022-08-19T10:00:14;26.70;54.80
6738;DHT22;3406;49.902;8.596;2022-08-19T10:02:40;26.70;54.50
6738;DHT22;3406;49.902;8.596;2022-08-19T10:05:07;26.80;54.50
6738;DHT22;3406;49.902;8.596;2022-08-19T10:07:51;26.90;54.40
6738;DHT22;3406;49.902;8.596;2022-08-19T10:10:18;27.00;53.90
6738;DHT22;3406;49.902;8.596;2022-08-19T10:12:46;27.20;53.80
6738;DHT22;3406;49.902;8.596;2022-08-19T10:15:14;27.30;53.60
6738;DHT22;3406;49.902;8.596;2022-08-19T10:17:41;27.30;53.30
6738;DHT22;3406;49.902;8.596;2022-08-19T10:20:08;27.40;53.30
6738;DHT22;3406;49.902;8.596;2022-08-19T10:22:34;27.50;53.10
6738;DHT22;3406;49.902;8.596;2022-08-19T10:25:04;27.60;52.80
6738;DHT22;3406;49.902;8.596;2022-08-19T10:27:31;27.70;52.70
6738;DHT22;3406;49.902;8.596;2022-08-19T10:29:59;27.70;52.70
6738;DHT22;3406;49.902;8.596;2022-08-19T10:32:26;27.70;52.40
6738;DHT22;3406;49.902;8.596;2022-08-19T10:34:54;27.50;52.00
6738;DHT22;3406;49.902;8.596;2022-08-19T10:37:21;27.40;52.30
6738;DHT22;3406;49.902;8.596;2022-08-19T10:39:48;27.30;52.40
6738;DHT22;3406;49.902;8.596;2022-08-19T10:42:15;27.30;52.30
6738;DHT22;3406;49.902;8.596;2022-08-19T10:44:42;27.30;52.20
6738;DHT22;3406;49.902;8.596;2022-08-19T10:47:10;27.40;52.00
6738;DHT22;3406;49.902;8.596;2022-08-19T10:49:37;27.50;51.70
6738;DHT22;3406;49.902;8.596;2022-08-19T10:52:24;27.70;51.30
6738;DHT22;3406;49.902;8.596;2022-08-19T10:54:58;27.80;51.00
6738;DHT22;3406;49.902;8.596;2022-08-19T10:57:43;27.90;51.00
6738;DHT22;3406;49.902;8.596;2022-08-19T11:00:11;27.80;50.50
6738;DHT22;3406;49.902;8.596;2022-08-19T11:02:39;27.70;50.20
6738;DHT22;3406;49.902;8.596;2022-08-19T11:05:07;27.70;49.90
6738;DHT22;3406;49.902;8.596;2022-08-19T11:07:36;27.70;49.70
6738;DHT22;3406;49.902;8.596;2022-08-19T11:10:04;27.80;49.50
6738;DHT22;3406;49.902;8.596;2022-08-19T11:12:30;27.90;49.00
6738;DHT22;3406;49.902;8.596;2022-08-19T11:14:58;27.90;49.00
6738;DHT22;3406;49.902;8.596;2022-08-19T11:17:25;28.00;49.00
6738;DHT22;3406;49.902;8.596;2022-08-19T11:19:53;28.10;48.80
6738;DHT22;3406;49.902;8.596;2022-08-19T11:22:19;28.20;48.60
6738;DHT22;3406;49.902;8.596;2022-08-19T11:24:46;28.40;48.40
6738;DHT22;3406;49.902;8.596;2022-08-19T11:27:12;28.50;48.20
6738;DHT22;3406;49.902;8.596;2022-08-19T11:29:39;28.60;48.10
6738;DHT22;3406;49.902;8.596;2022-08-19T11:32:08;28.50;47.40
6738;DHT22;3406;49.902;8.596;2022-08-19T11:34:36;28.20;47.80
6738;DHT22;3406;49.902;8.596;2022-08-19T11:37:04;28.20;47.90
6738;DHT22;3406;49.902;8.596;2022-08-19T11:39:32;28.30;47.60
6738;DHT22;3406;49.902;8.596;2022-08-19T11:42:01;28.40;47.40
6738;DHT22;3406;49.902;8.596;2022-08-19T11:44:28;28.40;46.70
6738;DHT22;3406;49.902;8.596;2022-08-19T11:46:55;28.40;46.40
6738;DHT22;3406;49.902;8.596;2022-08-19T11:49:22;28.50;46.50
6738;DHT22;3406;49.902;8.596;2022-08-19T11:51:49;28.60;46.50
6738;DHT22;3406;49.902;8.596;2022-08-19T11:54:17;28.90;46.50
6738;DHT22;3406;49.902;8.596;2022-08-19T11:56:44;29.00;46.10
6738;DHT22;3406;49.902;8.596;2022-08-19T11:59:13;29.10;45.90
6738;DHT22;3406;49.902;8.596;2022-08-19T12:01:39;29.10;46.10
6738;DHT22;3406;49.902;8.596;2022-08-19T12:04:08;29.10;46.20
6738;DHT22;3406;49.902;8.596;2022-08-19T12:06:38;28.90;46.50
6738;DHT22;3406;49.902;8.596;2022-08-19T12:09:06;28.80;45.90
6738;DHT22;3406;49.902;8.596;2022-08-19T12:11:35;28.70;45.50
6738;DHT22;3406;49.902;8.596;2022-08-19T12:14:03;28.70;45.20
6738;DHT22;3406;49.902;8.596;2022-08-19T12:16:30;28.80;44.70
6738;DHT22;3406;49.902;8.596;2022-08-19T12:18:58;28.80;44.20
6738;DHT22;3406;49.902;8.596;2022-08-19T12:21:30;28.70;44.10
6738;DHT22;3406;49.902;8.596;2022-08-19T12:23:58;28.80;44.30
6738;DHT22;3406;49.902;8.596;2022-08-19T12:26:27;28.90;44.40
6738;DHT22;3406;49.902;8.596;2022-08-19T12:28:55;28.90;44.40
6738;DHT22;3406;49.902;8.596;2022-08-19T12:31:24;28.80;44.60
6738;DHT22;3406;49.902;8.596;2022-08-19T12:33:50;28.70;44.40
6738;DHT22;3406;49.902;8.596;2022-08-19T12:36:18;28.80;44.00
6738;DHT22;3406;49.902;8.596;2022-08-19T12:38:45;28.90;43.70
6738;DHT22;3406;49.902;8.596;2022-08-19T12:41:14;29.00;43.20
6738;DHT22;3406;49.902;8.596;2022-08-19T12:43:42;29.10;42.30
6738;DHT22;3406;49.902;8.596;2022-08-19T12:46:11;29.10;42.10
6738;DHT22;3406;49.902;8.596;2022-08-19T12:48:38;29.10;42.30
6738;DHT22;3406;49.902;8.596;2022-08-19T12:51:07;29.20;42.50
6738;DHT22;3406;49.902;8.596;2022-08-19T12:53:35;29.30;42.50
6738;DHT22;3406;49.902;8.596;2022-08-19T12:56:03;29.40;42.10
6738;DHT22;3406;49.902;8.596;2022-08-19T12:58:30;29.30;42.30
6738;DHT22;3406;49.902;8.596;2022-08-19T13:00:59;29.20;41.60
6738;DHT22;3406;49.902;8.596;2022-08-19T13:03:27;29.20;41.60
6738;DHT22;3406;49.902;8.596;2022-08-19T13:05:55;29.30;41.60
6738;DHT22;3406;49.902;8.596;2022-08-19T13:08:22;29.40;41.20
6738;DHT22;3406;49.902;8.596;2022-08-19T13:10:48;29.50;40.90
6738;DHT22;3406;49.902;8.596;2022-08-19T13:13:15;29.70;40.90
6738;DHT22;3406;49.902;8.596;2022-08-19T13:15:42;29.80;40.70
6738;DHT22;3406;49.902;8.596;2022-08-19T13:18:10;29.90;40.40
6738;DHT22;3406;49.902;8.596;2022-08-19T13:20:39;29.90;40.10
6738;DHT22;3406;49.902;8.596;2022-08-19T13:23:07;30.00;40.30
6738;DHT22;3406;49.902;8.596;2022-08-19T13:25:35;29.90;40.20
6738;DHT22;3406;49.902;8.596;2022-08-19T13:28:02;29.70;40.40
6738;DHT22;3406;49.902;8.596;2022-08-19T13:30:32;29.60;40.70
6738;DHT22;3406;49.902;8.596;2022-08-19T13:33:16;29.50;40.60
6738;DHT22;3406;49.902;8.596;2022-08-19T13:35:47;29.50;40.50
6738;DHT22;3406;49.902;8.596;2022-08-19T13:38:17;29.60;40.40
6738;DHT22;3406;49.902;8.596;2022-08-19T13:40:44;29.70;40.30
6738;DHT22;3406;49.902;8.596;2022-08-19T13:43:11;29.80;40.20
6738;DHT22;3406;49.902;8.596;2022-08-19T13:45:39;30.00;40.10
6738;DHT22;3406;49.902;8.596;2022-08-19T13:48:07;30.10;39.80
6738;DHT22;3406;49.902;8.596;2022-08-19T13:50:39;30.20;39.10
6738;DHT22;3406;49.902;8.596;2022-08-19T13:53:08;30.10;38.80
6738;DHT22;3406;49.902;8.596;2022-08-19T13:55:37;30.10;38.90
6738;DHT22;3406;49.902;8.596;2022-08-19T13:58:04;30.20;38.50
6738;DHT22;3406;49.902;8.596;2022-08-19T14:00:34;30.20;37.70
6738;DHT22;3406;49.902;8.596;2022-08-19T14:03:02;30.20;37.80
6738;DHT22;3406;49.902;8.596;2022-08-19T14:05:30;30.20;37.70
6738;DHT22;3406;49.902;8.596;2022-08-19T14:07:57;30.20;37.60
6738;DHT22;3406;49.902;8.596;2022-08-19T14:10:26;30.30;37.60
6738;DHT22;3406;49.902;8.596;2022-08-19T14:12:54;30.40;37.40
6738;DHT22;3406;49.902;8.596;2022-08-19T14:15:24;30.50;37.20
6738;DHT22;3406;49.902;8.596;2022-08-19T14:17:51;30.60;36.90
6738;DHT22;3406;49.902;8.596;2022-08-19T14:20:19;30.70;36.80
6738;DHT22;3406;49.902;8.596;2022-08-19T14:22:47;30.60;36.90
6738;DHT22;3406;49.902;8.596;2022-08-19T14:25:15;30.50;37.00
6738;DHT22;3406;49.902;8.596;2022-08-19T14:27:44;30.50;37.20
6738;DHT22;3406;49.902;8.596;2022-08-19T14:30:14;30.40;36.90
6738;DHT22;3406;49.902;8.596;2022-08-19T14:32:41;30.40;37.10
6738;DHT22;3406;49.902;8.596;2022-08-19T14:35:11;30.40;37.00
6738;DHT22;3406;49.902;8.596;2022-08-19T14:37:40;30.40;37.00
6738;DHT22;3406;49.902;8.596;2022-08-19T14:40:08;30.50;37.10
6738;DHT22;3406;49.902;8.596;2022-08-19T14:42:35;30.50;36.90
6738;DHT22;3406;49.902;8.596;2022-08-19T14:45:04;30.50;36.70
6738;DHT22;3406;49.902;8.596;2022-08-19T14:47:31;30.50;36.70
6738;DHT22;3406;49.902;8.596;2022-08-19T14:49:58;30.60;36.70
6738;DHT22;3406;49.902;8.596;2022-08-19T14:52:25;30.60;36.50
6738;DHT22;3406;49.902;8.596;2022-08-19T14:54:51;30.60;36.60
6738;DHT22;3406;49.902;8.596;2022-08-19T14:57:18;30.60;36.70
6738;DHT22;3406;49.902;8.596;2022-08-19T14:59:45;30.50;36.30
6738;DHT22;3406;49.902;8.596;2022-08-19T15:02:13;30.40;36.40
6738;DHT22;3406;49.902;8.596;2022-08-19T15:04:40;30.40;36.50
6738;DHT22;3406;49.902;8.596;2022-08-19T15:07:07;30.40;36.40
6738;DHT22;3406;49.902;8.596;2022-08-19T15:09:34;30.50;36.20
6738;DHT22;3406;49.902;8.596;2022-08-19T15:12:01;30.50;36.30
6738;DHT22;3406;49.902;8.596;2022-08-19T15:14:29;30.50;36.30
6738;DHT22;3406;49.902;8.596;2022-08-19T15:17:00;30.50;36.30
6738;DHT22;3406;49.902;8.596;2022-08-19T15:19:28;30.50;36.10
6738;DHT22;3406;49.902;8.596;2022-08-19T15:21:55;30.50;36.00
6738;DHT22;3406;49.902;8.596;2022-08-19T15:24:21;30.40;35.90
6738;DHT22;3406;49.902;8.596;2022-08-19T15:26:51;30.40;36.00
6738;DHT22;3406;49.902;8.596;2022-08-19T15:29:17;30.40;36.00
6738;DHT22;3406;49.902;8.596;2022-08-19T15:31:44;30.30;36.00
6738;DHT22;3406;49.902;8.596;2022-08-19T15:34:11;30.30;36.20
6738;DHT22;3406;49.902;8.596;2022-08-19T15:36:39;30.40;36.10
6738;DHT22;3406;49.902;8.596;2022-08-19T15:39:06;30.50;36.00
6738;DHT22;3406;49.902;8.596;2022-08-19T15:41:35;30.50;35.90
6738;DHT22;3406;49.902;8.596;2022-08-19T15:44:05;30.60;35.80
6738;DHT22;3406;49.902;8.596;2022-08-19T15:46:36;30.60;35.80
6738;DHT22;3406;49.902;8.596;2022-08-19T15:49:04;30.70;35.60
6738;DHT22;3406;49.902;8.596;2022-08-19T15:51:33;30.60;35.60
6738;DHT22;3406;49.902;8.596;2022-08-19T15:54:03;30.60;35.60
6738;DHT22;3406;49.902;8.596;2022-08-19T15:56:30;30.70;35.70
6738;DHT22;3406;49.902;8.596;2022-08-19T15:59:26;30.80;35.70
6738;DHT22;3406;49.902;8.596;2022-08-19T16:02:21;30.80;35.00
6738;DHT22;3406;49.902;8.596;2022-08-19T16:05:09;30.80;35.00
6738;DHT22;3406;49.902;8.596;2022-08-19T16:07:53;30.80;35.00
6738;DHT22;3406;49.902;8.596;2022-08-19T16:10:22;30.80;35.20
6738;DHT22;3406;49.902;8.596;2022-08-19T16:12:49;30.80;35.30